sensor_id;sensor_type;location;lat;lon;timestamp;pressure;altitude;pressure_sealevel;temperature;humidity
53522;BME280;39398;48.382;9.802;2023-04-27T00:04:53;93822.97;;;5.43;100.00
53522;BME280;39398;48.382;9.802;2023-04-27T00:09:57;93821.81;;;5.54;98.50
53522;BME280;39398;48.382;9.802;2023-04-27T00:14:58;93823.78;;;5.60;97.69
53522;BME280;39398;48.382;9.802;2023-04-27T00:20:00;93821.63;;;5.31;100.00
53522;BME280;39398;48.382;9.802;2023-04-27T00:25:04;93814.78;;;5.30;100.00
53522;BME280;39398;48.382;9.802;2023-04-27T00:30:08;93817.56;;;5.36;99.81
53522;BME280;39398;48.382;9.802;2023-04-27T00:35:32;93804.81;;;5.50;97.29
53522;BME280;39398;48.382;9.802;2023-04-27T00:45:42;93804.16;;;5.23;98.82
53522;BME280;39398;48.382;9.802;2023-04-27T00:50:43;93805.06;;;5.06;100.00
53522;BME280;39398;48.382;9.802;2023-04-27T00:55:47;93803.19;;;5.49;97.25
53522;BME280;39398;48.382;9.802;2023-04-27T01:00:48;93800.06;;;5.94;93.68
53522;BME280;39398;48.382;9.802;2023-04-27T01:05:50;93802.84;;;5.60;94.46
53522;BME280;39398;48.382;9.802;2023-04-27T01:10:54;93796.28;;;5.56;95.67
53522;BME280;39398;48.382;9.802;2023-04-27T01:15:56;93796.94;;;5.58;95.31
53522;BME280;39398;48.382;9.802;2023-04-27T01:20:58;93788.44;;;5.40;96.93
53522;BME280;39398;48.382;9.802;2023-04-27T01:26:01;93790.38;;;5.13;99.56
53522;BME280;39398;48.382;9.802;2023-04-27T01:31:05;93805.41;;;4.95;100.00
53522;BME280;39398;48.382;9.802;2023-04-27T01:36:14;93795.88;;;4.85;100.00
53522;BME280;39398;48.382;9.802;2023-04-27T01:41:17;93797.44;;;4.54;100.00
53522;BME280;39398;48.382;9.802;2023-04-27T01:46:21;93800.56;;;4.65;100.00
53522;BME280;39398;48.382;9.802;2023-04-27T01:51:30;93811.31;;;5.13;100.00
53522;BME280;39398;48.382;9.802;2023-04-27T01:56:33;93798.72;;;5.17;100.00
53522;BME280;39398;48.382;9.802;2023-04-27T02:01:35;93811.22;;;4.80;100.00
53522;BME280;39398;48.382;9.802;2023-04-27T02:06:37;93820.97;;;3.93;100.00
53522;BME280;39398;48.382;9.802;2023-04-27T02:11:40;93813.78;;;3.69;100.00
53522;BME280;39398;48.382;9.802;2023-04-27T02:16:42;93814.91;;;4.19;100.00
53522;BME280;39398;48.382;9.802;2023-04-27T02:21:43;93817.84;;;4.16;100.00
53522;BME280;39398;48.382;9.802;2023-04-27T02:26:47;93821.13;;;4.18;100.00
53522;BME280;39398;48.382;9.802;2023-04-27T02:31:48;93818.81;;;4.15;100.00
53522;BME280;39398;48.382;9.802;2023-04-27T02:36:52;93825.69;;;4.24;100.00
53522;BME280;39398;48.382;9.802;2023-04-27T02:41:55;93825.06;;;4.22;100.00
53522;BME280;39398;48.382;9.802;2023-04-27T02:46:57;93820.88;;;4.11;100.00
53522;BME280;39398;48.382;9.802;2023-04-27T02:51:59;93821.97;;;4.27;100.00
53522;BME280;39398;48.382;9.802;2023-04-27T02:57:02;93819.22;;;4.36;100.00
53522;BME280;39398;48.382;9.802;2023-04-27T03:02:07;93820.75;;;4.47;100.00
53522;BME280;39398;48.382;9.802;2023-04-27T03:07:08;93820.50;;;4.66;100.00
53522;BME280;39398;48.382;9.802;2023-04-27T03:12:14;93825.06;;;4.64;100.00
53522;BME280;39398;48.382;9.802;2023-04-27T03:17:18;93827.25;;;4.43;100.00
53522;BME280;39398;48.382;9.802;2023-04-27T03:22:19;93822.78;;;4.27;100.00
53522;BME280;39398;48.382;9.802;2023-04-27T03:27:22;93830.94;;;3.98;100.00
53522;BME280;39398;48.382;9.802;2023-04-27T03:32:24;93839.41;;;3.48;100.00
53522;BME280;39398;48.382;9.802;2023-04-27T03:37:26;93848.44;;;3.80;100.00
53522;BME280;39398;48.382;9.802;2023-04-27T03:42:29;93830.00;;;4.33;100.00
53522;BME280;39398;48.382;9.802;2023-04-27T03:47:44;93841.88;;;4.54;100.00
53522;BME280;39398;48.382;9.802;2023-04-27T03:52:46;93842.00;;;4.44;100.00
53522;BME280;39398;48.382;9.802;2023-04-27T03:57:49;93843.59;;;4.11;100.00
53522;BME280;39398;48.382;9.802;2023-04-27T04:02:53;93847.72;;;3.95;100.00
53522;BME280;39398;48.382;9.802;2023-04-27T04:07:55;93841.69;;;3.95;100.00
53522;BME280;39398;48.382;9.802;2023-04-27T04:12:58;93846.91;;;3.95;100.00
53522;BME280;39398;48.382;9.802;2023-04-27T04:18:00;93859.16;;;3.94;100.00
53522;BME280;39398;48.382;9.802;2023-04-27T04:23:02;93857.03;;;4.16;100.00
53522;BME280;39398;48.382;9.802;2023-04-27T04:28:05;93857.59;;;4.28;100.00
53522;BME280;39398;48.382;9.802;2023-04-27T04:33:08;93853.91;;;4.47;100.00
53522;BME280;39398;48.382;9.802;2023-04-27T04:38:10;93852.78;;;4.49;100.00
53522;BME280;39398;48.382;9.802;2023-04-27T04:43:13;93856.94;;;4.60;100.00
53522;BME280;39398;48.382;9.802;2023-04-27T04:48:15;93864.47;;;4.63;100.00
53522;BME280;39398;48.382;9.802;2023-04-27T04:53:17;93869.88;;;4.70;100.00
53522;BME280;39398;48.382;9.802;2023-04-27T04:58:28;93874.38;;;4.94;100.00
53522;BME280;39398;48.382;9.802;2023-04-27T05:03:29;93874.41;;;5.02;100.00
53522;BME280;39398;48.382;9.802;2023-04-27T05:08:31;93873.31;;;5.29;100.00
53522;BME280;39398;48.382;9.802;2023-04-27T05:13:34;93878.78;;;5.60;100.00
53522;BME280;39398;48.382;9.802;2023-04-27T05:18:36;93880.72;;;5.33;100.00
53522;BME280;39398;48.382;9.802;2023-04-27T05:23:37;93880.47;;;5.10;100.00
53522;BME280;39398;48.382;9.802;2023-04-27T05:28:43;93883.47;;;5.24;100.00
53522;BME280;39398;48.382;9.802;2023-04-27T05:33:47;93880.56;;;5.43;100.00
53522;BME280;39398;48.382;9.802;2023-04-27T05:38:51;93881.53;;;5.34;100.00
53522;BME280;39398;48.382;9.802;2023-04-27T05:43:54;93883.63;;;5.22;100.00
53522;BME280;39398;48.382;9.802;2023-04-27T05:48:57;93876.94;;;5.28;100.00
53522;BME280;39398;48.382;9.802;2023-04-27T05:54:00;93880.03;;;5.31;100.00
53522;BME280;39398;48.382;9.802;2023-04-27T05:59:04;93890.22;;;5.51;100.00
53522;BME280;39398;48.382;9.802;2023-04-27T06:04:06;93889.56;;;5.57;100.00
53522;BME280;39398;48.382;9.802;2023-04-27T06:09:08;93887.09;;;5.39;100.00
53522;BME280;39398;48.382;9.802;2023-04-27T06:14:11;93897.25;;;5.50;100.00
53522;BME280;39398;48.382;9.802;2023-04-27T06:19:14;93896.78;;;5.47;100.00
53522;BME280;39398;48.382;9.802;2023-04-27T06:24:16;93907.44;;;5.62;100.00
53522;BME280;39398;48.382;9.802;2023-04-27T06:29:19;93910.88;;;5.87;100.00
53522;BME280;39398;48.382;9.802;2023-04-27T06:34:21;93910.25;;;5.93;100.00
53522;BME280;39398;48.382;9.802;2023-04-27T06:39:25;93921.38;;;6.03;100.00
53522;BME280;39398;48.382;9.802;2023-04-27T06:44:30;93924.31;;;6.41;98.68
53522;BME280;39398;48.382;9.802;2023-04-27T06:49:32;93925.25;;;6.81;100.00
53522;BME280;39398;48.382;9.802;2023-04-27T06:54:33;93931.78;;;6.93;100.00
53522;BME280;39398;48.382;9.802;2023-04-27T06:59:36;93927.00;;;7.36;99.19
53522;BME280;39398;48.382;9.802;2023-04-27T07:04:38;93920.16;;;7.58;98.31
53522;BME280;39398;48.382;9.802;2023-04-27T07:09:42;93925.41;;;7.81;95.98
53522;BME280;39398;48.382;9.802;2023-04-27T07:14:47;93931.63;;;8.11;100.00
53522;BME280;39398;48.382;9.802;2023-04-27T07:19:50;93929.44;;;8.75;97.00
53522;BME280;39398;48.382;9.802;2023-04-27T07:24:52;93929.53;;;8.82;95.91
53522;BME280;39398;48.382;9.802;2023-04-27T07:29:55;93931.81;;;10.02;90.12
53522;BME280;39398;48.382;9.802;2023-04-27T07:34:57;93939.81;;;10.09;90.88
53522;BME280;39398;48.382;9.802;2023-04-27T07:39:59;93930.50;;;10.56;90.33
53522;BME280;39398;48.382;9.802;2023-04-27T07:45:02;93933.66;;;10.44;82.95
53522;BME280;39398;48.382;9.802;2023-04-27T07:50:06;93936.75;;;10.27;88.76
53522;BME280;39398;48.382;9.802;2023-04-27T07:55:08;93920.91;;;11.04;85.12
53522;BME280;39398;48.382;9.802;2023-04-27T08:00:12;93924.94;;;11.41;77.37
53522;BME280;39398;48.382;9.802;2023-04-27T08:05:14;93921.78;;;11.59;76.85
53522;BME280;39398;48.382;9.802;2023-04-27T08:10:19;93922.56;;;12.21;75.83
53522;BME280;39398;48.382;9.802;2023-04-27T08:15:22;93920.56;;;12.43;77.15
53522;BME280;39398;48.382;9.802;2023-04-27T08:20:23;93919.91;;;13.14;72.11
53522;BME280;39398;48.382;9.802;2023-04-27T08:25:25;93919.97;;;12.74;69.96
53522;BME280;39398;48.382;9.802;2023-04-27T08:30:31;93914.72;;;13.53;71.04
53522;BME280;39398;48.382;9.802;2023-04-27T08:35:33;93909.84;;;14.33;68.40
53522;BME280;39398;48.382;9.802;2023-04-27T08:40:34;93913.28;;;14.40;59.63
53522;BME280;39398;48.382;9.802;2023-04-27T08:45:47;93911.06;;;13.99;65.80
53522;BME280;39398;48.382;9.802;2023-04-27T08:50:52;93913.84;;;14.74;64.78
53522;BME280;39398;48.382;9.802;2023-04-27T08:55:56;93908.50;;;14.55;63.02
53522;BME280;39398;48.382;9.802;2023-04-27T09:01:04;93905.44;;;14.13;61.64
53522;BME280;39398;48.382;9.802;2023-04-27T09:06:06;93902.19;;;15.00;58.74
53522;BME280;39398;48.382;9.802;2023-04-27T09:11:08;93902.78;;;15.57;57.65
53522;BME280;39398;48.382;9.802;2023-04-27T09:16:12;93904.59;;;15.81;60.84
53522;BME280;39398;48.382;9.802;2023-04-27T09:21:26;93904.28;;;15.53;62.31
53522;BME280;39398;48.382;9.802;2023-04-27T09:26:28;93906.47;;;14.51;60.36
53522;BME280;39398;48.382;9.802;2023-04-27T09:31:32;93902.50;;;14.28;60.25
53522;BME280;39398;48.382;9.802;2023-04-27T09:36:34;93895.97;;;14.62;61.55
53522;BME280;39398;48.382;9.802;2023-04-27T09:41:36;93902.03;;;14.38;67.70
53522;BME280;39398;48.382;9.802;2023-04-27T09:46:41;93894.25;;;13.73;66.77
53522;BME280;39398;48.382;9.802;2023-04-27T09:51:42;93899.97;;;14.72;64.33
53522;BME280;39398;48.382;9.802;2023-04-27T09:56:51;93899.16;;;15.15;68.30
53522;BME280;39398;48.382;9.802;2023-04-27T10:01:59;93904.22;;;15.41;61.85
53522;BME280;39398;48.382;9.802;2023-04-27T10:07:14;93884.16;;;15.57;57.26
53522;BME280;39398;48.382;9.802;2023-04-27T10:12:17;93888.69;;;15.56;59.88
53522;BME280;39398;48.382;9.802;2023-04-27T10:17:29;93889.66;;;14.82;62.14
53522;BME280;39398;48.382;9.802;2023-04-27T10:22:38;93891.69;;;15.05;62.03
53522;BME280;39398;48.382;9.802;2023-04-27T10:27:40;93891.06;;;15.83;60.67
53522;BME280;39398;48.382;9.802;2023-04-27T10:32:54;93888.41;;;15.83;56.87
53522;BME280;39398;48.382;9.802;2023-04-27T10:38:05;93889.03;;;15.97;59.95
53522;BME280;39398;48.382;9.802;2023-04-27T10:43:16;93883.75;;;15.23;57.42
53522;BME280;39398;48.382;9.802;2023-04-27T10:48:21;93878.91;;;16.06;65.27
53522;BME280;39398;48.382;9.802;2023-04-27T10:53:25;93884.28;;;15.69;56.39
53522;BME280;39398;48.382;9.802;2023-04-27T10:58:27;93880.81;;;14.88;60.56
53522;BME280;39398;48.382;9.802;2023-04-27T11:03:54;93883.47;;;15.68;62.30
53522;BME280;39398;48.382;9.802;2023-04-27T11:08:56;93873.63;;;15.14;59.08
53522;BME280;39398;48.382;9.802;2023-04-27T11:14:04;93877.03;;;15.39;57.74
53522;BME280;39398;48.382;9.802;2023-04-27T11:19:09;93878.03;;;15.01;62.04
53522;BME280;39398;48.382;9.802;2023-04-27T11:24:10;93875.41;;;14.19;65.07
53522;BME280;39398;48.382;9.802;2023-04-27T11:29:19;93877.75;;;14.34;65.38
53522;BME280;39398;48.382;9.802;2023-04-27T11:34:24;93873.34;;;14.22;64.18
53522;BME280;39398;48.382;9.802;2023-04-27T11:39:26;93875.66;;;13.80;67.42
53522;BME280;39398;48.382;9.802;2023-04-27T11:44:28;93882.31;;;13.95;68.53
53522;BME280;39398;48.382;9.802;2023-04-27T11:49:33;93878.91;;;14.13;70.22
53522;BME280;39398;48.382;9.802;2023-04-27T11:54:36;93886.22;;;14.50;67.37
53522;BME280;39398;48.382;9.802;2023-04-27T11:59:40;93888.78;;;14.88;62.29
53522;BME280;39398;48.382;9.802;2023-04-27T12:04:43;93881.97;;;15.17;63.37
53522;BME280;39398;48.382;9.802;2023-04-27T12:09:47;93881.75;;;15.55;64.20
53522;BME280;39398;48.382;9.802;2023-04-27T12:14:49;93886.25;;;15.37;63.65
53522;BME280;39398;48.382;9.802;2023-04-27T12:19:53;93894.53;;;15.47;64.53
53522;BME280;39398;48.382;9.802;2023-04-27T12:24:54;93891.22;;;15.51;60.68
53522;BME280;39398;48.382;9.802;2023-04-27T12:29:56;93886.06;;;15.38;61.03
53522;BME280;39398;48.382;9.802;2023-04-27T12:34:59;93868.50;;;15.86;62.13
53522;BME280;39398;48.382;9.802;2023-04-27T12:40:05;93869.81;;;15.95;62.09
53522;BME280;39398;48.382;9.802;2023-04-27T12:45:07;93869.78;;;15.46;64.37
53522;BME280;39398;48.382;9.802;2023-04-27T12:50:10;93858.78;;;15.43;62.63
53522;BME280;39398;48.382;9.802;2023-04-27T12:55:17;93867.97;;;14.85;64.70
53522;BME280;39398;48.382;9.802;2023-04-27T13:00:33;93859.28;;;15.15;63.33
53522;BME280;39398;48.382;9.802;2023-04-27T13:05:38;93861.34;;;15.31;62.65
53522;BME280;39398;48.382;9.802;2023-04-27T13:10:48;93848.66;;;15.51;64.45
53522;BME280;39398;48.382;9.802;2023-04-27T13:15:52;93846.44;;;15.67;63.15
53522;BME280;39398;48.382;9.802;2023-04-27T13:20:55;93846.91;;;15.57;64.15
53522;BME280;39398;48.382;9.802;2023-04-27T13:25:59;93849.78;;;15.92;61.80
53522;BME280;39398;48.382;9.802;2023-04-27T13:31:00;93829.66;;;16.38;61.65
53522;BME280;39398;48.382;9.802;2023-04-27T13:36:04;93819.06;;;15.78;60.44
53522;BME280;39398;48.382;9.802;2023-04-27T13:41:07;93815.81;;;15.57;65.08
53522;BME280;39398;48.382;9.802;2023-04-27T13:46:08;93819.84;;;15.67;63.99
53522;BME280;39398;48.382;9.802;2023-04-27T13:51:12;93818.00;;;15.79;66.38
53522;BME280;39398;48.382;9.802;2023-04-27T13:56:13;93820.72;;;15.91;62.02
53522;BME280;39398;48.382;9.802;2023-04-27T14:01:15;93827.88;;;16.32;59.00
53522;BME280;39398;48.382;9.802;2023-04-27T14:06:21;93820.91;;;16.19;60.62
53522;BME280;39398;48.382;9.802;2023-04-27T14:11:25;93828.94;;;16.31;58.04
53522;BME280;39398;48.382;9.802;2023-04-27T14:16:27;93824.91;;;16.40;59.42
53522;BME280;39398;48.382;9.802;2023-04-27T14:21:30;93828.25;;;15.27;70.97
53522;BME280;39398;48.382;9.802;2023-04-27T14:26:32;93833.16;;;14.18;68.82
53522;BME280;39398;48.382;9.802;2023-04-27T14:31:57;93823.13;;;15.62;63.16
53522;BME280;39398;48.382;9.802;2023-04-27T14:37:03;93818.66;;;15.93;60.12
53522;BME280;39398;48.382;9.802;2023-04-27T14:42:04;93830.19;;;15.20;59.99
53522;BME280;39398;48.382;9.802;2023-04-27T14:47:06;93822.88;;;15.82;64.58
53522;BME280;39398;48.382;9.802;2023-04-27T14:52:09;93830.06;;;16.23;60.56
53522;BME280;39398;48.382;9.802;2023-04-27T14:57:11;93825.72;;;15.50;68.02
53522;BME280;39398;48.382;9.802;2023-04-27T15:02:12;93828.28;;;15.57;71.54
53522;BME280;39398;48.382;9.802;2023-04-27T15:07:15;93829.78;;;16.01;63.21
53522;BME280;39398;48.382;9.802;2023-04-27T15:12:17;93826.97;;;16.38;64.24
53522;BME280;39398;48.382;9.802;2023-04-27T15:17:20;93839.66;;;15.16;74.40
53522;BME280;39398;48.382;9.802;2023-04-27T15:22:23;93833.94;;;14.75;81.04
53522;BME280;39398;48.382;9.802;2023-04-27T15:27:27;93826.59;;;14.71;77.96
53522;BME280;39398;48.382;9.802;2023-04-27T15:32:29;93815.53;;;15.47;74.38
53522;BME280;39398;48.382;9.802;2023-04-27T15:37:35;93822.63;;;15.72;62.57
53522;BME280;39398;48.382;9.802;2023-04-27T15:42:37;93828.56;;;15.00;70.99
53522;BME280;39398;48.382;9.802;2023-04-27T15:47:40;93827.81;;;15.97;62.86
53522;BME280;39398;48.382;9.802;2023-04-27T15:52:47;93820.66;;;16.09;59.76
53522;BME280;39398;48.382;9.802;2023-04-27T15:57:51;93807.75;;;16.24;64.52
53522;BME280;39398;48.382;9.802;2023-04-27T16:02:55;93803.22;;;16.37;61.17
53522;BME280;39398;48.382;9.802;2023-04-27T16:08:01;93804.97;;;16.55;59.37
53522;BME280;39398;48.382;9.802;2023-04-27T16:13:03;93800.94;;;16.87;54.44
53522;BME280;39398;48.382;9.802;2023-04-27T16:18:05;93798.31;;;16.10;60.51
53522;BME280;39398;48.382;9.802;2023-04-27T16:23:08;93797.16;;;16.06;61.38
53522;BME280;39398;48.382;9.802;2023-04-27T16:28:10;93794.63;;;16.23;61.42
53522;BME280;39398;48.382;9.802;2023-04-27T16:33:14;93791.88;;;16.41;61.08
53522;BME280;39398;48.382;9.802;2023-04-27T16:38:17;93786.44;;;16.36;59.43
53522;BME280;39398;48.382;9.802;2023-04-27T16:43:19;93780.88;;;16.49;59.37
53522;BME280;39398;48.382;9.802;2023-04-27T16:48:20;93792.47;;;16.32;58.41
53522;BME280;39398;48.382;9.802;2023-04-27T16:53:23;93782.03;;;16.18;59.52
53522;BME280;39398;48.382;9.802;2023-04-27T16:58:25;93789.78;;;16.32;58.81
53522;BME280;39398;48.382;9.802;2023-04-27T17:03:29;93789.09;;;16.48;58.20
53522;BME280;39398;48.382;9.802;2023-04-27T17:08:34;93786.91;;;16.68;57.99
53522;BME280;39398;48.382;9.802;2023-04-27T17:13:36;93781.81;;;16.67;59.01
53522;BME280;39398;48.382;9.802;2023-04-27T17:18:38;93789.22;;;16.65;58.24
53522;BME280;39398;48.382;9.802;2023-04-27T17:23:43;93790.63;;;16.44;59.45
53522;BME280;39398;48.382;9.802;2023-04-27T17:28:45;93787.34;;;16.30;62.47
53522;BME280;39398;48.382;9.802;2023-04-27T17:33:48;93788.16;;;16.19;64.39
53522;BME280;39398;48.382;9.802;2023-04-27T17:38:51;93781.44;;;16.16;65.87
53522;BME280;39398;48.382;9.802;2023-04-27T17:44:06;93779.13;;;16.20;66.78
53522;BME280;39398;48.382;9.802;2023-04-27T17:49:09;93786.66;;;15.81;66.86
53522;BME280;39398;48.382;9.802;2023-04-27T17:54:12;93793.38;;;15.84;66.19
53522;BME280;39398;48.382;9.802;2023-04-27T17:59:14;93802.00;;;15.67;66.83
53522;BME280;39398;48.382;9.802;2023-04-27T18:10:22;93786.47;;;15.16;67.66
53522;BME280;39398;48.382;9.802;2023-04-27T18:15:23;93789.50;;;15.01;68.15
53522;BME280;39398;48.382;9.802;2023-04-27T18:20:26;93792.81;;;14.78;69.24
53522;BME280;39398;48.382;9.802;2023-04-27T18:25:31;93789.19;;;14.72;69.73
53522;BME280;39398;48.382;9.802;2023-04-27T18:30:34;93787.25;;;14.61;70.01
53522;BME280;39398;48.382;9.802;2023-04-27T18:35:36;93794.41;;;14.60;70.70
53522;BME280;39398;48.382;9.802;2023-04-27T18:40:39;93795.44;;;14.59;71.10
53522;BME280;39398;48.382;9.802;2023-04-27T18:45:41;93803.72;;;14.45;71.34
53522;BME280;39398;48.382;9.802;2023-04-27T18:50:43;93815.50;;;14.30;72.46
53522;BME280;39398;48.382;9.802;2023-04-27T18:55:52;93816.06;;;14.32;72.56
53522;BME280;39398;48.382;9.802;2023-04-27T19:13:38;93807.75;;;13.97;74.90
53522;BME280;39398;48.382;9.802;2023-04-27T19:18:40;93821.47;;;13.94;74.37
53522;BME280;39398;48.382;9.802;2023-04-27T19:23:45;93822.47;;;13.61;77.03
53522;BME280;39398;48.382;9.802;2023-04-27T19:28:48;93832.50;;;13.53;76.59
53522;BME280;39398;48.382;9.802;2023-04-27T19:33:51;93826.25;;;13.40;77.75
53522;BME280;39398;48.382;9.802;2023-04-27T19:39:43;93831.94;;;13.51;78.77
53522;BME280;39398;48.382;9.802;2023-04-27T19:44:46;93822.56;;;13.48;78.08
53522;BME280;39398;48.382;9.802;2023-04-27T19:49:48;93817.44;;;13.53;75.32
53522;BME280;39398;48.382;9.802;2023-04-27T19:54:50;93821.06;;;13.00;76.65
53522;BME280;39398;48.382;9.802;2023-04-27T19:59:53;93816.44;;;12.89;79.28
53522;BME280;39398;48.382;9.802;2023-04-27T20:04:55;93813.09;;;13.07;78.59
53522;BME280;39398;48.382;9.802;2023-04-27T20:09:57;93814.59;;;12.90;79.37
53522;BME280;39398;48.382;9.802;2023-04-27T20:15:00;93821.25;;;13.12;78.88
53522;BME280;39398;48.382;9.802;2023-04-27T20:20:04;93807.97;;;13.19;75.60
53522;BME280;39398;48.382;9.802;2023-04-27T20:25:09;93808.81;;;13.06;78.58
53522;BME280;39398;48.382;9.802;2023-04-27T20:30:13;93802.94;;;12.97;78.06
53522;BME280;39398;48.382;9.802;2023-04-27T20:35:14;93790.88;;;13.01;78.00
53522;BME280;39398;48.382;9.802;2023-04-27T20:40:16;93788.50;;;12.93;78.28
53522;BME280;39398;48.382;9.802;2023-04-27T20:45:19;93788.56;;;12.73;80.81
53522;BME280;39398;48.382;9.802;2023-04-27T20:50:21;93785.66;;;12.82;79.48
53522;BME280;39398;48.382;9.802;2023-04-27T20:55:23;93780.81;;;12.65;79.84
53522;BME280;39398;48.382;9.802;2023-04-27T21:00:38;93785.28;;;12.71;79.75
53522;BME280;39398;48.382;9.802;2023-04-27T21:05:39;93775.91;;;12.69;80.58
53522;BME280;39398;48.382;9.802;2023-04-27T21:10:41;93770.25;;;12.59;80.92
53522;BME280;39398;48.382;9.802;2023-04-27T21:15:52;93771.69;;;12.54;82.69
53522;BME280;39398;48.382;9.802;2023-04-27T21:20:56;93781.09;;;12.17;82.99
53522;BME280;39398;48.382;9.802;2023-04-27T21:25:58;93776.16;;;12.47;83.66
53522;BME280;39398;48.382;9.802;2023-04-27T21:31:06;93766.00;;;12.31;84.00
53522;BME280;39398;48.382;9.802;2023-04-27T21:36:08;93766.03;;;12.18;84.72
53522;BME280;39398;48.382;9.802;2023-04-27T21:41:09;93760.94;;;12.16;85.18
53522;BME280;39398;48.382;9.802;2023-04-27T21:46:14;93761.94;;;12.08;85.08
53522;BME280;39398;48.382;9.802;2023-04-27T21:51:16;93761.34;;;12.26;84.47
53522;BME280;39398;48.382;9.802;2023-04-27T21:56:20;93757.88;;;12.06;85.22
53522;BME280;39398;48.382;9.802;2023-04-27T22:01:23;93753.81;;;12.10;87.33
53522;BME280;39398;48.382;9.802;2023-04-27T22:06:25;93743.19;;;11.83;87.25
53522;BME280;39398;48.382;9.802;2023-04-27T22:11:27;93737.50;;;11.80;88.75
53522;BME280;39398;48.382;9.802;2023-04-27T22:16:30;93734.06;;;11.79;89.67
53522;BME280;39398;48.382;9.802;2023-04-27T22:21:31;93726.75;;;11.81;88.75
53522;BME280;39398;48.382;9.802;2023-04-27T22:26:33;93727.97;;;11.66;90.02
53522;BME280;39398;48.382;9.802;2023-04-27T22:31:42;93733.25;;;11.52;90.82
53522;BME280;39398;48.382;9.802;2023-04-27T22:36:45;93730.38;;;11.54;91.49
53522;BME280;39398;48.382;9.802;2023-04-27T22:41:46;93730.59;;;11.66;90.75
53522;BME280;39398;48.382;9.802;2023-04-27T22:46:49;93733.25;;;11.72;90.03
53522;BME280;39398;48.382;9.802;2023-04-27T22:51:51;93734.47;;;11.76;89.80
53522;BME280;39398;48.382;9.802;2023-04-27T22:56:53;93731.22;;;11.74;90.05
53522;BME280;39398;48.382;9.802;2023-04-27T23:01:56;93733.38;;;11.17;93.13
53522;BME280;39398;48.382;9.802;2023-04-27T23:06:58;93737.53;;;10.85;97.29
53522;BME280;39398;48.382;9.802;2023-04-27T23:12:03;93739.63;;;10.55;99.98
53522;BME280;39398;48.382;9.802;2023-04-27T23:17:06;93745.06;;;10.88;96.79
53522;BME280;39398;48.382;9.802;2023-04-27T23:22:08;93741.53;;;10.75;98.86
53522;BME280;39398;48.382;9.802;2023-04-27T23:27:10;93743.41;;;10.81;97.02
53522;BME280;39398;48.382;9.802;2023-04-27T23:32:21;93744.34;;;11.14;92.88
53522;BME280;39398;48.382;9.802;2023-04-27T23:37:25;93748.41;;;11.17;93.97
53522;BME280;39398;48.382;9.802;2023-04-27T23:48:31;93722.56;;;11.12;94.08
53522;BME280;39398;48.382;9.802;2023-04-27T23:53:33;93709.75;;;11.03;95.61
53522;BME280;39398;48.382;9.802;2023-04-27T23:58:34;93707.53;;;11.06;95.20
